Portada
METAR-TAF:

METAR-TAF

Aeroports :

Gaya, Índia

latitud: 24-44-40N, longitud: 84-57-04E, altitud: 116 m

Observació

L'informe es va fer fa 49 minuts, a les 16:00 UTC
Vent calma
Temperatura 14°C
Humitat 94%
Pressió 1014 hPa
Visibilitat: 1500 m
boirina

METAR: VEGY 011600Z 00000KT 1500 BR NSC 14/13 Q1014

Hora: 22:19 (16:49 UTC)

Pronòstic

L'informe es va fer fa 2 hores i 49 minuts, a les 14:00 UTC
Pronòstic vàlid del 01 a les 15 UTC al 01 a les 24 UTC
Vent kt del Nord
Visibilitat: 1500 m
boirina
Evolucionant progressivament
l' 01 a les 21 UTC al 01 a les 23 UTC
Visibilitat: 1000 m
Boira superficial

TAF: VEGY 011400Z 0115/0124 00000KT 1500 BR NSC BECMG 0121/0123 1000 MIFG

Observacions i pronòstics meteorològics de més de 4000 aeroports (METAR i TAF).

Les estacions disponibles són els punts grocs i vermells al mapa.

Posi el ratolí al punt desitjat per veure el nom de l'estació.

Feu clic per veure les observacions i els pronòstics meteorològics.

Per canviar el mapa: feu clic els botons verds amb una creu de color negre per apropar; al botó verd amb un guió per allunyar la imatge; o en les fletxes verdes per a mapes adjacents.


METAR-TAF: